< Cyclone 198610 1986 Season Cyclone 198612 >
Cyclone 198611 (VICTOR)
General InformationDetailed Track InformationTrack Information on Google MapsList of All Images || ResourceGoogle EarthGE AnimationAtom FeedGeoJSON
Detalied Best Track Wind (Time Zone = UTC)
Year Month Day Hour Lat. Long. Wind (kt) Gust (kt) Direc. of Major Storm Axis Radius of Major Storm Axis (nm) Radius of Minor Storm Axis (nm) Direc. of Major Gale Axis Radius of Major Gale Axis (nm) Radius of Minor Gale Axis (nm) Image
1986 3 2 09 -13.1 124.2 33 -1 symmetric - - symmetric - - Image
1986 3 2 12 -13.2 124.4 33 -1 symmetric - - symmetric - - Image
1986 3 2 16 -13.3 124.2 33 -1 symmetric - - symmetric - - Image
1986 3 2 18 -13.4 123.9 37 -1 symmetric - - symmetric - - Image
1986 3 2 21 -13.5 123.6 41 -1 symmetric - - symmetric - - Image
1986 3 3 00 -13.6 123.4 41 -1 symmetric - - symmetric - - Image
1986 3 3 03 -13.8 123.2 43 -1 symmetric - - symmetric - - Image
1986 3 3 06 -14.0 122.8 47 -1 symmetric - - symmetric - - Image
1986 3 3 09 -14.2 122.5 47 -1 symmetric - - symmetric - - Image
1986 3 3 12 -14.3 122.2 53 -1 symmetric - - symmetric - - Image
1986 3 3 16 -14.4 121.6 53 -1 symmetric - - symmetric - - Image
1986 3 3 18 -14.5 121.3 54 -1 symmetric - - symmetric - - Image
1986 3 3 21 -14.6 120.7 60 -1 symmetric - - symmetric - - Image
1986 3 4 00 -14.7 120.3 66 -1 symmetric - - symmetric - - Image
1986 3 4 06 -15.3 119.4 80 -1 symmetric - - symmetric - - Image
1986 3 4 12 -16.1 118.3 89 -1 symmetric - - symmetric - - Image
1986 3 4 18 -16.4 117.5 95 -1 symmetric - - symmetric - - Image
1986 3 5 00 -17.0 116.8 105 -1 symmetric - - symmetric - - Image
1986 3 5 06 -17.4 116.3 113 -1 symmetric - - symmetric - - Image
1986 3 5 12 -18.1 115.5 109 -1 symmetric - - symmetric - - Image
1986 3 5 18 -18.3 114.9 99 -1 symmetric - - symmetric - - Image
1986 3 5 21 -18.4 114.6 99 -1 symmetric - - symmetric - - Image
1986 3 6 00 -18.5 114.5 99 -1 symmetric - - symmetric - - Image
1986 3 6 03 -18.7 114.4 99 -1 symmetric - - symmetric - - Image
1986 3 6 06 -18.9 114.3 99 -1 symmetric - - symmetric - - Image
1986 3 6 09 -19.1 114.1 95 -1 symmetric - - symmetric - - Image
1986 3 6 12 -19.3 114.0 95 -1 symmetric - - symmetric - - Image
1986 3 6 16 -19.5 113.7 95 -1 symmetric - - symmetric - - Image
1986 3 6 18 -19.7 113.5 89 -1 symmetric - - symmetric - - Image
1986 3 6 21 -20.1 113.0 89 -1 symmetric - - symmetric - - Image
1986 3 7 00 -20.3 112.6 89 -1 symmetric - - symmetric - - Image
1986 3 7 03 -20.5 112.4 84 -1 symmetric - - symmetric - - Image
1986 3 7 06 -20.9 112.1 84 -1 symmetric - - symmetric - - Image
1986 3 7 09 -21.4 111.7 80 -1 symmetric - - symmetric - - Image
1986 3 7 12 -21.9 111.4 80 -1 symmetric - - symmetric - - Image
1986 3 7 16 -22.5 111.2 74 -1 symmetric - - symmetric - - Image
1986 3 7 18 -22.8 111.0 68 -1 symmetric - - symmetric - - Image
1986 3 7 21 -23.2 110.8 64 -1 symmetric - - symmetric - - Image
1986 3 8 00 -23.5 110.6 58 -1 symmetric - - symmetric - - Image
1986 3 8 06 -24.6 110.0 53 -1 symmetric - - symmetric - - Image
1986 3 8 12 -25.5 109.4 47 -1 symmetric - - symmetric - - Image
1986 3 8 18 -26.4 109.3 41 -1 symmetric - - symmetric - - Image
1986 3 9 00 -27.5 109.7 33 -1 symmetric - - symmetric - - Image
1986 3 9 06 -28.6 109.8 25 -1 symmetric - - symmetric - - Image
< Cyclone 198610 1986 Season Cyclone 198612 >

Help